createdAt,value
2023-12-20T00:00:58.951Z,0.93
2023-12-20T00:06:01.065Z,1.38
2023-12-20T00:11:03.246Z,0.90
2023-12-20T00:16:05.603Z,2.20
2023-12-20T00:21:07.577Z,2.88
2023-12-20T00:26:09.556Z,2.00
2023-12-20T00:31:11.677Z,1.70
2023-12-20T00:36:13.875Z,1.30
2023-12-20T00:41:15.806Z,1.73
2023-12-20T00:46:17.881Z,1.25
2023-12-20T00:51:20.135Z,1.10
2023-12-20T00:56:22.653Z,1.05
2023-12-20T01:01:24.697Z,0.70
2023-12-20T01:06:26.697Z,0.70
2023-12-20T01:11:28.997Z,0.45
2023-12-20T01:16:30.972Z,0.50
2023-12-20T01:21:32.926Z,0.50
2023-12-20T01:26:35.013Z,0.60
2023-12-20T01:31:37.043Z,0.52
2023-12-20T01:36:39.024Z,0.40
2023-12-20T01:41:41.384Z,0.90
2023-12-20T01:46:43.534Z,0.65
2023-12-20T01:51:46.255Z,0.57
2023-12-20T01:56:50.068Z,0.77
2023-12-20T02:01:52.172Z,0.50
2023-12-20T02:06:54.537Z,0.77
2023-12-20T02:11:56.645Z,0.60
2023-12-20T02:16:58.655Z,0.38
2023-12-20T02:22:11.537Z,0.43
2023-12-20T02:27:13.996Z,0.60
2023-12-20T02:32:16.728Z,0.40
2023-12-20T02:37:18.865Z,0.40
2023-12-20T02:42:20.864Z,0.50
2023-12-20T02:47:22.783Z,0.30
2023-12-20T02:52:26.060Z,0.47
2023-12-20T02:57:28.032Z,0.50
2023-12-20T03:02:29.976Z,0.40
2023-12-20T03:07:31.952Z,0.28
2023-12-20T03:12:33.925Z,0.30
2023-12-20T03:17:35.916Z,0.45
2023-12-20T03:22:37.866Z,0.40
2023-12-20T03:27:40.232Z,0.28
2023-12-20T03:32:42.234Z,0.47
2023-12-20T03:37:44.563Z,0.80
2023-12-20T03:42:47.120Z,1.02
2023-12-20T03:47:50.163Z,1.45
2023-12-20T03:52:52.433Z,1.30
2023-12-20T03:57:54.751Z,1.48
2023-12-20T04:02:56.756Z,0.90
2023-12-20T04:08:00.680Z,1.17
2023-12-20T04:13:02.708Z,1.67
2023-12-20T04:18:05.542Z,1.20
2023-12-20T04:23:07.649Z,2.08
2023-12-20T04:28:09.723Z,0.98
2023-12-20T04:33:11.716Z,0.90
2023-12-20T04:38:13.970Z,1.25
2023-12-20T04:43:15.974Z,0.95
2023-12-20T04:48:17.998Z,0.90
2023-12-20T04:53:19.998Z,0.90
2023-12-20T04:58:22.026Z,1.38
2023-12-20T05:03:24.158Z,1.20
2023-12-20T05:08:26.346Z,1.70
2023-12-20T05:13:37.847Z,1.15
2023-12-20T05:18:44.536Z,1.02
2023-12-20T05:23:46.884Z,0.95
2023-12-20T05:28:48.888Z,1.38
2023-12-20T05:33:51.403Z,1.13
2023-12-20T05:38:53.408Z,1.58
2023-12-20T05:43:55.366Z,1.00
2023-12-20T05:49:00.319Z,1.00
2023-12-20T05:54:02.580Z,1.15
2023-12-20T05:59:04.621Z,0.70
2023-12-20T06:04:06.729Z,1.00
2023-12-20T06:09:08.732Z,1.65
2023-12-20T06:14:10.711Z,0.90
2023-12-20T06:19:13.091Z,0.98
2023-12-20T06:24:15.152Z,0.82
2023-12-20T06:29:17.081Z,1.30
2023-12-20T06:34:19.297Z,1.25
2023-12-20T06:39:21.335Z,1.98
2023-12-20T06:44:23.281Z,1.00
2023-12-20T06:49:25.374Z,1.15
2023-12-20T06:54:27.435Z,1.20
2023-12-20T06:59:29.587Z,0.90
2023-12-20T07:04:31.650Z,0.90
2023-12-20T07:09:34.221Z,1.65
2023-12-20T07:14:36.216Z,1.05
2023-12-20T07:19:39.514Z,1.25
2023-12-20T07:24:41.590Z,1.08
2023-12-20T07:29:43.614Z,1.00
2023-12-20T07:34:45.903Z,1.13
2023-12-20T07:39:48.975Z,1.00
2023-12-20T07:44:51.182Z,1.00
2023-12-20T07:49:53.779Z,0.98
2023-12-20T07:54:56.195Z,0.98
2023-12-20T07:59:58.216Z,1.20
2023-12-20T08:05:00.178Z,1.02
2023-12-20T08:10:02.165Z,0.75
2023-12-20T08:15:05.360Z,1.60
2023-12-20T08:20:08.342Z,1.88
2023-12-20T08:25:10.605Z,1.30
2023-12-20T08:30:13.797Z,1.42
2023-12-20T08:35:15.906Z,1.25
2023-12-20T08:40:17.922Z,1.67
2023-12-20T08:45:19.946Z,1.17
2023-12-20T08:50:22.326Z,0.88
2023-12-20T08:55:24.376Z,1.08
2023-12-20T09:00:28.881Z,1.35
2023-12-20T09:05:31.360Z,1.52
2023-12-20T09:10:33.467Z,1.10
2023-12-20T09:15:37.109Z,1.90
2023-12-20T09:20:42.487Z,1.90
2023-12-20T09:25:46.127Z,1.90
2023-12-20T09:30:49.185Z,1.70
2023-12-20T09:35:51.394Z,1.40
2023-12-20T09:40:55.308Z,1.10
2023-12-20T09:51:06.367Z,1.90
2023-12-20T09:56:12.177Z,1.50
2023-12-20T10:01:17.685Z,1.52
2023-12-20T10:06:20.969Z,1.30
2023-12-20T10:11:23.293Z,1.35
2023-12-20T10:16:29.483Z,2.10
2023-12-20T10:21:31.830Z,1.40
2023-12-20T10:26:35.951Z,1.02
2023-12-20T10:31:40.093Z,1.30
2023-12-20T10:36:42.295Z,2.03
2023-12-20T10:41:49.285Z,2.25
2023-12-20T10:46:52.908Z,1.23
2023-12-20T10:51:58.562Z,1.10
2023-12-20T10:57:01.300Z,1.73
2023-12-20T11:02:08.035Z,1.50
2023-12-20T11:07:20.889Z,1.15
2023-12-20T11:12:38.229Z,1.15
2023-12-20T11:17:42.090Z,1.10
2023-12-20T11:22:54.626Z,1.40
2023-12-20T11:28:11.718Z,2.40
2023-12-20T11:33:22.696Z,1.30
2023-12-20T11:38:25.502Z,1.65
2023-12-20T11:43:37.707Z,1.23
2023-12-20T11:48:45.519Z,1.50
2023-12-20T11:53:58.412Z,1.30
2023-12-20T11:59:12.838Z,1.23
2023-12-20T12:04:24.373Z,1.75
2023-12-20T12:09:26.592Z,1.40
2023-12-20T12:14:28.719Z,1.10
2023-12-20T12:19:36.015Z,1.40
2023-12-20T12:24:38.801Z,1.95
2023-12-20T12:29:41.546Z,1.42
2023-12-20T12:34:43.758Z,1.90
2023-12-20T12:39:48.037Z,1.70
2023-12-20T12:44:50.101Z,1.65
2023-12-20T12:49:54.383Z,1.63
2023-12-20T12:54:56.432Z,1.38
2023-12-20T12:59:59.603Z,1.77
2023-12-20T13:05:03.928Z,1.20
2023-12-20T13:10:07.480Z,1.98
2023-12-20T13:15:10.664Z,1.50
2023-12-20T13:20:13.464Z,1.73
2023-12-20T13:25:16.962Z,1.52
2023-12-20T13:30:19.913Z,1.30
2023-12-20T13:35:27.006Z,1.60
2023-12-20T13:40:30.271Z,1.83
2023-12-20T13:45:33.786Z,1.92
2023-12-20T13:50:37.163Z,1.80
2023-12-20T13:55:39.537Z,1.63
2023-12-20T14:00:42.604Z,1.40
2023-12-20T14:05:48.771Z,1.15
2023-12-20T14:10:52.659Z,1.70
2023-12-20T14:15:57.200Z,1.58
2023-12-20T14:21:03.487Z,1.05
2023-12-20T14:26:06.055Z,1.55
2023-12-20T14:31:08.274Z,1.42
2023-12-20T14:36:10.509Z,1.00
2023-12-20T14:41:12.444Z,1.20
2023-12-20T14:46:14.557Z,1.00
2023-12-20T14:51:16.744Z,1.23
2023-12-20T14:56:18.672Z,1.00
2023-12-20T15:01:24.598Z,1.40
2023-12-20T15:06:26.960Z,1.75
2023-12-20T15:11:29.764Z,0.75
2023-12-20T15:16:31.893Z,0.88
2023-12-20T15:21:42.926Z,1.10
2023-12-20T15:26:47.756Z,1.65
2023-12-20T15:31:50.165Z,0.98
2023-12-20T15:36:52.356Z,1.08
2023-12-20T15:41:54.570Z,0.80
2023-12-20T15:46:56.565Z,1.27
2023-12-20T15:51:58.612Z,1.00
2023-12-20T15:57:00.586Z,1.30
2023-12-20T16:02:04.011Z,1.23
2023-12-20T16:07:06.144Z,0.88
2023-12-20T16:12:08.888Z,1.13
2023-12-20T16:17:10.998Z,0.82
2023-12-20T16:22:13.073Z,1.02
2023-12-20T16:27:15.103Z,1.20
2023-12-20T16:32:17.196Z,1.25
2023-12-20T16:37:19.824Z,1.00
2023-12-20T16:42:21.968Z,1.15
2023-12-20T16:47:24.075Z,0.82
2023-12-20T16:52:26.047Z,0.88
2023-12-20T16:57:28.115Z,1.13
2023-12-20T17:02:30.046Z,1.13
2023-12-20T17:07:32.222Z,1.30
2023-12-20T17:12:34.372Z,1.42
2023-12-20T17:17:37.123Z,1.15
2023-12-20T17:22:42.414Z,1.35
2023-12-20T17:27:46.919Z,1.23
2023-12-20T17:32:51.134Z,1.17
2023-12-20T17:37:53.564Z,0.65
2023-12-20T17:42:57.301Z,1.15
2023-12-20T17:47:59.288Z,1.17
2023-12-20T17:53:01.352Z,1.20
2023-12-20T17:58:03.385Z,1.33
2023-12-20T18:03:06.066Z,1.10
2023-12-20T18:08:08.351Z,1.38
2023-12-20T18:13:10.496Z,1.35
2023-12-20T18:18:12.917Z,0.80
2023-12-20T18:23:16.048Z,0.70
2023-12-20T18:28:19.679Z,0.70
2023-12-20T18:33:22.987Z,1.45
2023-12-20T18:38:30.126Z,0.93
2023-12-20T18:43:32.372Z,1.30
2023-12-20T18:48:35.219Z,1.55
2023-12-20T18:53:37.908Z,1.00
2023-12-20T18:58:40.750Z,0.88
2023-12-20T19:03:43.455Z,0.95
2023-12-20T19:08:51.281Z,1.20
2023-12-20T19:13:53.494Z,0.90
2023-12-20T19:18:55.549Z,1.20
2023-12-20T19:23:58.441Z,1.20
2023-12-20T19:29:00.968Z,0.90
2023-12-20T19:34:03.915Z,0.95
2023-12-20T19:39:08.935Z,0.98
2023-12-20T19:44:11.704Z,1.10
2023-12-20T19:49:13.877Z,0.70
2023-12-20T19:54:16.226Z,0.82
2023-12-20T19:59:19.689Z,1.02
2023-12-20T20:04:21.784Z,0.70
2023-12-20T20:09:23.920Z,0.82
2023-12-20T20:14:28.341Z,1.05
2023-12-20T20:19:31.351Z,1.02
2023-12-20T20:24:33.425Z,0.98
2023-12-20T20:29:35.634Z,0.93
2023-12-20T20:34:37.723Z,1.10
2023-12-20T20:39:40.573Z,1.50
2023-12-20T20:44:45.309Z,1.52
2023-12-20T20:49:47.466Z,0.95
2023-12-20T20:54:49.619Z,1.00
2023-12-20T20:59:51.724Z,1.23
2023-12-20T21:04:53.780Z,1.20
2023-12-20T21:09:56.400Z,1.00
2023-12-20T21:14:58.562Z,1.08
2023-12-20T21:20:00.811Z,0.63
2023-12-20T21:25:03.039Z,1.05
2023-12-20T21:30:08.407Z,1.05
2023-12-20T21:35:10.461Z,0.88
2023-12-20T21:40:12.742Z,0.57
2023-12-20T21:45:14.749Z,1.00
2023-12-20T21:50:17.354Z,1.05
2023-12-20T21:55:19.317Z,0.90
2023-12-20T22:00:21.472Z,1.20
2023-12-20T22:05:23.580Z,1.00
2023-12-20T22:10:25.566Z,1.17
2023-12-20T22:15:28.009Z,0.90
2023-12-20T22:20:32.232Z,1.00
2023-12-20T22:25:34.623Z,0.95
2023-12-20T22:30:36.756Z,0.77
2023-12-20T22:35:38.735Z,0.68
2023-12-20T22:40:40.878Z,1.13
2023-12-20T22:45:44.358Z,0.95
2023-12-20T22:50:46.321Z,1.58
2023-12-20T22:55:48.290Z,1.10
2023-12-20T23:00:51.354Z,0.60
2023-12-20T23:05:53.422Z,0.60
2023-12-20T23:10:55.855Z,0.90
2023-12-20T23:15:58.425Z,0.70
2023-12-20T23:21:01.096Z,0.50
2023-12-20T23:26:03.152Z,0.60
2023-12-20T23:31:05.263Z,0.45
2023-12-20T23:36:07.673Z,0.80
2023-12-20T23:41:09.633Z,0.38
2023-12-20T23:46:12.111Z,0.70
2023-12-20T23:51:14.160Z,0.77
2023-12-20T23:56:23.716Z,0.30
